Fenton, MI (48430)

1:02 PM EST on December 03, 2016 (GMT -0500)
Fenton osporto19 | | Change Station

Elev 906 ft 42.80 °N, 83.70 °W | Updated 1 second ago

Overcast
Overcast
38.0 °F
Feels Like 38 °F
N
1.0
Wind Variable Wind from SSW

Today
High -- | Low -- °F
--% Chance of Precip.
Yesterday
High -- | Low -- °F
Precip. -- in
Pressure 30.28 in
Visibility 10.0 miles
Clouds Overcast 4200 ft
Windchill 38 °F
Dew Point 31 °F
Humidity 78%
Rainfall 0.00 in
Snow Depth Not available.
7:48 AM 5:01 PM
Waxing Crescent, 16% visible
METAR KFNT 031753Z 28009KT 10SM OVC042 03/M02 A3026 RMK AO2 SLP253 T00331017 10033 20011 58016
Pressure 30.28 in
Visibility 10.0 miles
Clouds Overcast 4200 ft
Windchill 38 °F
Dew Point 31 °F
Humidity 78%
Rainfall 0.00 in
Snow Depth Not available.
7:48 AM 5:01 PM
Waxing Crescent, 16% visible
METAR KFNT 031753Z 28009KT 10SM OVC042 03/M02 A3026 RMK AO2 SLP253 T00331017 10033 20011 58016

10-Day Weather Forecast

Almanac

Astronomy

Dec. 03, 2016 Rise Set
Actual Time
Civil Twilight
Nautical Twilight
Astronomical Twilight
Moon
Length of Visible Light
Length of Day
Tomorrow will be .
, % of the Moon is Illuminated

Today's Extremes

State Highs State Lows

Community

WunderPhotos

Upload Photos

1,955,455 photos uploaded!

WunderBlog® & News

Nearby

Air Quality

  Air Quality AQ Index Pollutant
Not available.

Snow Depth

Station Depth Elevation

Earthquake Activity

City Distance Mag. Time & Date
Minimum magnitude displayed is 2.5.

Coastal Water Temperatures

Place Temperature

Stations

Nearby Weather Stations

Station Location Temp. Windchill Dew Point Humidity Wind Precip. Elev Updated Type
                   

Watches & Warnings

There are currently no watches in effect.